createdAt,value
2019-02-24T00:02:28.502Z,42.73
2019-02-24T00:04:58.683Z,42.35
2019-02-24T00:07:28.827Z,42.55
2019-02-24T00:10:06.024Z,40.78
2019-02-24T00:12:39.925Z,41.95
2019-02-24T00:15:12.413Z,42.10
2019-02-24T00:17:44.652Z,42.88
2019-02-24T00:20:15.154Z,44.50
2019-02-24T00:22:45.391Z,44.60
2019-02-24T00:25:15.414Z,44.65
2019-02-24T00:27:45.552Z,43.55
2019-02-24T00:30:15.766Z,42.95
2019-02-24T00:32:45.829Z,41.92
2019-02-24T00:35:15.864Z,42.98
2019-02-24T00:37:47.770Z,41.68
2019-02-24T00:40:17.781Z,41.40
2019-02-24T00:42:50.690Z,42.15
2019-02-24T00:45:20.728Z,41.35
2019-02-24T00:47:51.049Z,41.25
2019-02-24T00:50:20.932Z,40.38
2019-02-24T00:52:51.232Z,40.10
2019-02-24T00:55:27.209Z,40.48
2019-02-24T00:57:57.406Z,38.90
2019-02-24T01:00:27.511Z,38.48
2019-02-24T01:03:00.357Z,38.13
2019-02-24T01:05:30.422Z,37.42
2019-02-24T01:08:05.082Z,36.17
2019-02-24T01:10:35.212Z,36.95
2019-02-24T01:13:05.738Z,37.25
2019-02-24T01:15:35.900Z,37.40
2019-02-24T01:18:06.036Z,35.98
2019-02-24T01:20:36.203Z,35.70
2019-02-24T01:23:06.254Z,35.65
2019-02-24T01:25:36.462Z,37.42
2019-02-24T01:28:10.133Z,36.68
2019-02-24T01:30:49.776Z,35.95
2019-02-24T01:33:21.029Z,35.78
2019-02-24T01:35:51.160Z,36.10
2019-02-24T01:38:21.279Z,36.33
2019-02-24T01:40:51.462Z,36.10
2019-02-24T01:43:21.568Z,36.28
2019-02-24T01:45:51.700Z,36.42
2019-02-24T01:48:23.392Z,36.48
2019-02-24T01:50:53.505Z,36.33
2019-02-24T01:53:23.828Z,38.58
2019-02-24T01:55:53.937Z,37.23
2019-02-24T01:58:25.295Z,38.30
2019-02-24T02:00:55.404Z,36.75
2019-02-24T02:03:25.645Z,38.63
2019-02-24T02:05:55.765Z,39.55
2019-02-24T02:08:25.957Z,38.83
2019-02-24T02:10:57.249Z,38.40
2019-02-24T02:13:28.449Z,39.65
2019-02-24T02:15:58.561Z,39.85
2019-02-24T02:18:28.758Z,40.98
2019-02-24T02:20:58.880Z,39.25
2019-02-24T02:23:29.047Z,42.10
2019-02-24T02:25:59.271Z,40.65
2019-02-24T02:28:29.441Z,40.63
2019-02-24T02:30:59.655Z,43.20
2019-02-24T02:33:29.820Z,38.92
2019-02-24T02:36:07.195Z,39.58
2019-02-24T02:38:37.387Z,40.05
2019-02-24T02:41:10.162Z,39.27
2019-02-24T02:43:40.370Z,40.40
2019-02-24T02:46:10.451Z,44.05
2019-02-24T02:48:40.630Z,44.50
2019-02-24T02:51:10.747Z,44.55
2019-02-24T02:53:40.950Z,43.75
2019-02-24T02:56:13.023Z,43.95
2019-02-24T02:58:42.858Z,44.33
2019-02-24T03:01:12.968Z,44.33
2019-02-24T03:03:43.293Z,43.78
2019-02-24T03:06:23.964Z,45.35
2019-02-24T03:08:54.540Z,44.00
2019-02-24T03:11:24.651Z,43.45
2019-02-24T03:13:54.773Z,44.45
2019-02-24T03:16:27.417Z,46.13
2019-02-24T03:18:57.691Z,44.63
2019-02-24T03:21:34.540Z,43.23
2019-02-24T03:24:04.321Z,43.68
2019-02-24T03:26:34.413Z,42.58
2019-02-24T03:29:15.113Z,41.25
2019-02-24T03:31:45.243Z,41.88
2019-02-24T03:34:15.686Z,43.68
2019-02-24T03:36:56.128Z,43.35
2019-02-24T03:39:27.466Z,42.58
2019-02-24T03:42:01.447Z,42.17
2019-02-24T03:44:31.612Z,42.45
2019-02-24T03:47:03.549Z,43.50
2019-02-24T03:49:33.728Z,42.25
2019-02-24T03:52:03.826Z,40.80
2019-02-24T03:54:34.159Z,40.92
2019-02-24T03:57:04.344Z,41.02
2019-02-24T03:59:37.559Z,40.58
2019-02-24T04:02:07.900Z,41.40
2019-02-24T04:04:38.111Z,40.85
2019-02-24T04:07:08.343Z,39.90
2019-02-24T04:09:38.516Z,40.33
2019-02-24T04:12:08.780Z,41.88
2019-02-24T04:14:38.943Z,41.55
2019-02-24T04:17:11.926Z,40.75
2019-02-24T04:19:43.293Z,41.18
2019-02-24T04:22:13.444Z,41.70
2019-02-24T04:24:43.798Z,40.43
2019-02-24T04:27:14.100Z,41.42
2019-02-24T04:29:44.191Z,39.98
2019-02-24T04:32:16.245Z,39.38
2019-02-24T04:34:46.138Z,41.98
2019-02-24T04:37:16.261Z,39.78
2019-02-24T04:39:46.400Z,40.52
2019-02-24T04:42:22.073Z,41.13
2019-02-24T04:44:52.255Z,42.00
2019-02-24T04:47:22.336Z,42.20
2019-02-24T04:49:52.527Z,40.65
2019-02-24T04:52:22.627Z,41.35
2019-02-24T04:55:08.025Z,43.08
2019-02-24T04:57:37.517Z,41.05
2019-02-24T05:00:09.492Z,43.90
2019-02-24T05:02:46.943Z,42.05
2019-02-24T05:05:17.081Z,42.10
2019-02-24T05:08:02.300Z,43.38
2019-02-24T05:10:32.541Z,41.50
2019-02-24T05:13:09.606Z,41.73
2019-02-24T05:15:50.598Z,42.75
2019-02-24T05:18:20.727Z,42.40
2019-02-24T05:20:50.929Z,40.40
2019-02-24T05:23:21.041Z,40.95
2019-02-24T05:25:51.248Z,43.17
2019-02-24T05:28:21.263Z,41.95
2019-02-24T05:30:52.300Z,43.02
2019-02-24T05:33:30.226Z,41.80
2019-02-24T05:36:00.411Z,42.05
2019-02-24T05:38:30.549Z,42.70
2019-02-24T05:41:00.689Z,42.00
2019-02-24T05:43:30.789Z,43.10
2019-02-24T05:46:05.839Z,43.55
2019-02-24T05:48:33.703Z,45.45
2019-02-24T05:51:04.028Z,45.85
2019-02-24T05:53:34.161Z,45.73
2019-02-24T05:56:09.773Z,46.95
2019-02-24T05:58:39.804Z,46.95
2019-02-24T06:01:09.968Z,46.92
2019-02-24T06:03:40.088Z,46.40
2019-02-24T06:06:10.207Z,47.20
2019-02-24T06:08:40.288Z,47.50
2019-02-24T06:11:10.467Z,47.62
2019-02-24T06:13:40.567Z,44.60
2019-02-24T06:16:10.768Z,45.78
2019-02-24T06:18:40.810Z,48.35
2019-02-24T06:21:10.958Z,47.30
2019-02-24T06:23:41.177Z,45.23
2019-02-24T06:26:11.354Z,45.55
2019-02-24T06:28:41.409Z,46.10
2019-02-24T06:31:11.539Z,44.38
2019-02-24T06:33:41.702Z,43.48
2019-02-24T06:36:11.754Z,44.23
2019-02-24T06:38:41.740Z,44.48
2019-02-24T06:41:11.824Z,44.85
2019-02-24T06:43:41.872Z,44.58
2019-02-24T06:46:12.127Z,44.13
2019-02-24T06:48:42.110Z,45.23
2019-02-24T06:51:12.192Z,45.70
2019-02-24T06:53:42.246Z,43.40
2019-02-24T06:56:12.445Z,44.30
2019-02-24T06:58:42.424Z,46.23
2019-02-24T07:01:12.582Z,47.58
2019-02-24T07:03:42.631Z,45.60
2019-02-24T07:06:12.800Z,46.95
2019-02-24T07:08:42.794Z,44.90
2019-02-24T07:11:12.930Z,48.83
2019-02-24T07:13:42.980Z,45.38
2019-02-24T07:16:13.136Z,46.98
2019-02-24T07:18:43.190Z,47.65
2019-02-24T07:21:13.347Z,47.73
2019-02-24T07:23:43.773Z,48.13
2019-02-24T07:26:13.850Z,42.45
2019-02-24T07:28:43.963Z,41.13
2019-02-24T07:31:13.966Z,40.58
2019-02-24T07:33:43.958Z,36.23
2019-02-24T07:36:14.142Z,36.08
2019-02-24T07:38:44.205Z,38.73
2019-02-24T07:41:14.224Z,36.85
2019-02-24T07:43:44.326Z,38.35
2019-02-24T07:46:15.615Z,36.33
2019-02-24T07:48:45.713Z,37.63
2019-02-24T07:51:15.796Z,36.55
2019-02-24T07:53:45.864Z,36.05
2019-02-24T07:56:15.995Z,34.95
2019-02-24T07:58:46.048Z,36.77
2019-02-24T08:01:16.247Z,36.13
2019-02-24T08:03:46.362Z,35.38
2019-02-24T08:06:16.532Z,35.78
2019-02-24T08:08:46.652Z,34.60
2019-02-24T08:11:16.988Z,35.73
2019-02-24T08:13:47.057Z,33.75
2019-02-24T08:16:17.208Z,34.95
2019-02-24T08:18:49.955Z,30.90
2019-02-24T08:21:18.948Z,30.55
2019-02-24T08:23:49.092Z,27.90
2019-02-24T08:26:19.083Z,28.42
2019-02-24T08:28:49.062Z,31.90
2019-02-24T08:31:19.031Z,34.63
2019-02-24T08:33:49.168Z,37.48
2019-02-24T08:36:19.192Z,36.15
2019-02-24T08:38:49.273Z,30.20
2019-02-24T08:41:19.348Z,31.07
2019-02-24T08:43:49.524Z,28.75
2019-02-24T08:46:19.639Z,28.30
2019-02-24T08:48:49.820Z,29.48
2019-02-24T08:51:19.841Z,30.52
2019-02-24T08:53:49.834Z,29.98
2019-02-24T08:56:19.883Z,31.20
2019-02-24T08:58:49.977Z,33.33
2019-02-24T09:01:21.028Z,31.97
2019-02-24T09:03:51.038Z,30.35
2019-02-24T09:06:21.094Z,31.60
2019-02-24T09:08:53.134Z,31.87
2019-02-24T09:11:22.618Z,28.42
2019-02-24T09:13:53.704Z,28.98
2019-02-24T09:16:23.806Z,29.10
2019-02-24T09:18:53.894Z,28.30
2019-02-24T09:21:23.925Z,29.42
2019-02-24T09:23:53.948Z,26.65
2019-02-24T09:26:23.992Z,26.12
2019-02-24T09:28:53.948Z,26.97
2019-02-24T09:31:24.102Z,25.92
2019-02-24T09:33:54.120Z,21.00
2019-02-24T09:36:24.222Z,23.22
2019-02-24T09:38:54.316Z,26.37
2019-02-24T09:41:24.426Z,25.10
2019-02-24T09:43:54.516Z,22.00
2019-02-24T09:46:24.572Z,21.05
2019-02-24T09:48:54.628Z,27.65
2019-02-24T09:51:24.748Z,25.85
2019-02-24T09:53:54.872Z,20.52
2019-02-24T09:56:24.974Z,20.60
2019-02-24T09:58:54.947Z,19.80
2019-02-24T10:01:25.146Z,20.00
2019-02-24T10:03:55.248Z,19.62
2019-02-24T10:06:25.349Z,17.57
2019-02-24T10:08:55.333Z,21.10
2019-02-24T10:11:25.430Z,22.50
2019-02-24T10:13:55.458Z,17.75
2019-02-24T10:16:25.609Z,16.57
2019-02-24T10:18:55.588Z,17.05
2019-02-24T10:21:25.669Z,19.00
2019-02-24T10:23:55.716Z,19.07
2019-02-24T10:26:26.187Z,19.17
2019-02-24T10:28:56.306Z,25.65
2019-02-24T10:31:26.401Z,24.20
2019-02-24T10:33:56.511Z,18.57
2019-02-24T10:36:26.665Z,21.52
2019-02-24T10:38:56.793Z,17.48
2019-02-24T10:41:26.960Z,15.93
2019-02-24T10:43:57.016Z,14.85
2019-02-24T10:46:27.172Z,16.87
2019-02-24T10:49:03.362Z,18.23
2019-02-24T10:51:29.089Z,18.85
2019-02-24T10:53:59.164Z,18.85
2019-02-24T10:56:29.205Z,14.68
2019-02-24T10:58:59.255Z,13.80
2019-02-24T11:01:30.053Z,15.03
2019-02-24T11:04:00.203Z,15.03
2019-02-24T11:06:30.298Z,16.45
2019-02-24T11:09:00.382Z,16.65
2019-02-24T11:11:31.298Z,17.87
2019-02-24T11:14:01.264Z,17.42
2019-02-24T11:16:32.244Z,15.10
2019-02-24T11:19:03.302Z,14.25
2019-02-24T11:21:33.482Z,16.07
2019-02-24T11:24:03.492Z,16.50
2019-02-24T11:26:33.718Z,15.03
2019-02-24T11:29:03.847Z,16.87
2019-02-24T11:31:38.333Z,18.12
2019-02-24T11:34:06.880Z,18.48
2019-02-24T11:36:37.094Z,16.77
2019-02-24T11:39:07.151Z,17.42
2019-02-24T11:41:37.704Z,15.83
2019-02-24T11:44:07.851Z,15.65
2019-02-24T11:46:38.115Z,16.35
2019-02-24T11:49:08.141Z,16.02
2019-02-24T11:51:38.301Z,14.78
2019-02-24T11:54:08.328Z,16.17
2019-02-24T11:56:38.404Z,15.70
2019-02-24T11:59:08.431Z,17.25
2019-02-24T12:01:47.114Z,16.30
2019-02-24T12:04:10.209Z,15.75
2019-02-24T12:06:40.355Z,15.00
2019-02-24T12:09:11.441Z,15.25
2019-02-24T12:11:41.893Z,16.32
2019-02-24T12:14:11.880Z,16.93
2019-02-24T12:16:42.036Z,17.30
2019-02-24T12:19:12.137Z,16.23
2019-02-24T12:21:42.280Z,16.55
2019-02-24T12:24:12.337Z,16.40
2019-02-24T12:26:42.539Z,16.30
2019-02-24T12:29:12.597Z,17.42
2019-02-24T12:31:42.744Z,18.37
2019-02-24T12:34:12.803Z,18.52
2019-02-24T12:36:42.967Z,17.00
2019-02-24T12:39:14.185Z,18.07
2019-02-24T12:41:44.212Z,17.60
2019-02-24T12:44:15.791Z,18.20
2019-02-24T12:46:45.871Z,17.25
2019-02-24T12:49:15.987Z,17.65
2019-02-24T12:51:46.233Z,15.98
2019-02-24T12:54:16.237Z,16.50
2019-02-24T12:56:47.981Z,14.40
2019-02-24T12:59:18.087Z,14.33
2019-02-24T13:01:48.261Z,15.88
2019-02-24T13:04:18.217Z,16.32
2019-02-24T13:06:48.303Z,16.97
2019-02-24T13:09:19.623Z,16.60
2019-02-24T13:11:50.064Z,17.32
2019-02-24T13:14:20.110Z,16.00
2019-02-24T13:16:50.554Z,15.68
2019-02-24T13:19:20.653Z,15.90
2019-02-24T13:21:50.900Z,15.93
2019-02-24T13:24:20.919Z,15.43
2019-02-24T13:26:51.818Z,15.10
2019-02-24T13:29:22.916Z,15.83
2019-02-24T13:31:53.098Z,15.18
2019-02-24T13:34:23.054Z,16.55
2019-02-24T13:36:56.362Z,15.38
2019-02-24T13:39:26.307Z,14.75
2019-02-24T13:41:56.384Z,13.28
2019-02-24T13:44:26.402Z,12.63
2019-02-24T13:46:56.592Z,12.45
2019-02-24T13:49:26.628Z,13.53
2019-02-24T13:51:58.046Z,12.98
2019-02-24T13:54:28.045Z,12.50
2019-02-24T13:56:58.126Z,11.70
2019-02-24T13:59:28.182Z,12.28
2019-02-24T14:01:58.272Z,11.10
2019-02-24T14:04:28.366Z,11.70
2019-02-24T14:06:58.448Z,11.48
2019-02-24T14:09:28.561Z,12.93
2019-02-24T14:11:58.666Z,12.82
2019-02-24T14:14:28.791Z,12.60
2019-02-24T14:16:58.854Z,15.18
2019-02-24T14:19:28.922Z,15.58
2019-02-24T14:21:59.084Z,13.08
2019-02-24T14:24:29.161Z,14.05
2019-02-24T14:26:59.260Z,14.13
2019-02-24T14:29:29.430Z,15.05
2019-02-24T14:31:59.693Z,17.90
2019-02-24T14:34:29.801Z,15.63
2019-02-24T14:36:59.970Z,15.32
2019-02-24T14:39:30.029Z,24.32
2019-02-24T14:42:00.205Z,19.30
2019-02-24T14:44:30.246Z,20.25
2019-02-24T14:47:00.315Z,36.30
2019-02-24T14:49:30.369Z,33.20
2019-02-24T14:52:00.462Z,15.53
2019-02-24T14:54:30.568Z,14.23
2019-02-24T14:57:02.256Z,15.40
2019-02-24T14:59:32.222Z,16.85
2019-02-24T15:02:03.450Z,18.07
2019-02-24T15:04:33.359Z,18.25
2019-02-24T15:07:03.414Z,16.02
2019-02-24T15:09:33.526Z,17.15
2019-02-24T15:12:03.548Z,15.85
2019-02-24T15:14:33.644Z,16.60
2019-02-24T15:17:03.718Z,15.75
2019-02-24T15:19:34.866Z,15.98
2019-02-24T15:22:04.960Z,16.62
2019-02-24T15:24:35.112Z,17.12
2019-02-24T15:27:05.181Z,17.48
2019-02-24T15:29:36.288Z,18.55
2019-02-24T15:32:06.480Z,18.37
2019-02-24T15:34:36.720Z,20.48
2019-02-24T15:37:08.444Z,24.32
2019-02-24T15:39:38.606Z,23.42
2019-02-24T15:42:09.403Z,22.85
2019-02-24T15:44:39.523Z,19.35
2019-02-24T15:47:09.543Z,14.93
2019-02-24T15:49:39.655Z,14.53
2019-02-24T15:52:10.260Z,13.20
2019-02-24T15:54:40.302Z,14.35
2019-02-24T15:57:10.365Z,12.93
2019-02-24T15:59:40.468Z,13.50
2019-02-24T16:02:10.579Z,13.45
2019-02-24T16:04:40.600Z,13.18
2019-02-24T16:07:10.715Z,16.07
2019-02-24T16:09:40.839Z,15.48
2019-02-24T16:12:10.888Z,16.00
2019-02-24T16:14:41.029Z,16.40
2019-02-24T16:17:11.150Z,17.80
2019-02-24T16:19:41.269Z,17.50
2019-02-24T16:22:11.469Z,19.15
2019-02-24T16:24:41.591Z,19.27
2019-02-24T16:27:11.596Z,16.80
2019-02-24T16:29:41.630Z,16.48
2019-02-24T16:32:11.779Z,16.15
2019-02-24T16:34:41.745Z,17.92
2019-02-24T16:37:11.783Z,19.15
2019-02-24T16:39:41.866Z,18.62
2019-02-24T16:42:12.217Z,19.45
2019-02-24T16:44:42.351Z,21.90
2019-02-24T16:47:12.402Z,22.77
2019-02-24T16:49:42.513Z,22.62
2019-02-24T16:52:12.681Z,21.87
2019-02-24T16:54:42.756Z,25.10
2019-02-24T16:57:12.844Z,24.12
2019-02-24T16:59:51.755Z,25.90
2019-02-24T17:02:23.077Z,33.55
2019-02-24T17:04:53.311Z,37.38
2019-02-24T17:07:23.441Z,35.35
2019-02-24T17:09:53.898Z,37.45
2019-02-24T17:12:24.044Z,32.45
2019-02-24T17:14:54.208Z,31.85
2019-02-24T17:17:24.371Z,32.35
2019-02-24T17:19:54.505Z,31.40
2019-02-24T17:22:24.592Z,30.75
2019-02-24T17:24:54.607Z,24.12
2019-02-24T17:27:24.774Z,20.90
2019-02-24T17:29:54.900Z,23.83
2019-02-24T17:32:25.135Z,22.67
2019-02-24T17:34:56.270Z,21.50
2019-02-24T17:37:26.354Z,25.85
2019-02-24T17:39:56.768Z,28.05
2019-02-24T17:42:26.862Z,28.00
2019-02-24T17:44:58.481Z,27.80
2019-02-24T17:47:28.440Z,27.58
2019-02-24T17:49:58.556Z,25.50
2019-02-24T17:52:30.397Z,24.05
2019-02-24T17:55:00.346Z,24.60
2019-02-24T17:57:30.519Z,23.45
2019-02-24T18:00:00.712Z,24.25
2019-02-24T18:02:30.921Z,22.37
2019-02-24T18:05:00.990Z,22.15
2019-02-24T18:07:30.984Z,23.57
2019-02-24T18:10:01.001Z,27.17
2019-02-24T18:12:31.276Z,26.70
2019-02-24T18:15:01.305Z,28.83
2019-02-24T18:17:31.564Z,30.80
2019-02-24T18:20:01.650Z,31.68
2019-02-24T18:22:32.147Z,30.72
2019-02-24T18:25:03.537Z,29.42
2019-02-24T18:27:33.988Z,28.90
2019-02-24T18:30:06.095Z,27.10
2019-02-24T18:32:36.373Z,27.42
2019-02-24T18:35:06.364Z,25.02
2019-02-24T18:37:36.438Z,22.22
2019-02-24T18:40:10.097Z,23.10
2019-02-24T18:45:14.135Z,21.62
2019-02-24T18:47:44.301Z,21.30
2019-02-24T18:50:20.113Z,19.55
2019-02-24T18:52:50.160Z,18.15
2019-02-24T18:55:20.265Z,17.30
2019-02-24T18:57:50.446Z,18.82
2019-02-24T19:00:23.949Z,18.10
2019-02-24T19:02:55.114Z,18.48
2019-02-24T19:05:25.352Z,19.55
2019-02-24T19:07:55.433Z,17.82
2019-02-24T19:10:25.546Z,17.35
2019-02-24T19:12:55.699Z,18.02
2019-02-24T19:15:25.741Z,18.17
2019-02-24T19:17:55.935Z,18.27
2019-02-24T19:20:26.047Z,16.77
2019-02-24T19:22:56.207Z,17.50
2019-02-24T19:25:26.243Z,18.67
2019-02-24T19:27:56.367Z,18.92
2019-02-24T19:30:26.535Z,19.05
2019-02-24T19:32:57.649Z,19.25
2019-02-24T19:35:27.815Z,19.77
2019-02-24T19:37:57.914Z,18.82
2019-02-24T19:40:29.046Z,19.67
2019-02-24T19:42:59.210Z,18.60
2019-02-24T19:45:30.323Z,18.20
2019-02-24T19:48:00.933Z,18.77
2019-02-24T19:50:31.081Z,17.75
2019-02-24T19:53:01.242Z,16.25
2019-02-24T19:55:31.342Z,16.82
2019-02-24T19:58:01.518Z,15.18
2019-02-24T20:00:31.672Z,14.93
2019-02-24T20:03:01.791Z,16.15
2019-02-24T20:05:31.900Z,16.32
2019-02-24T20:08:29.292Z,16.17
2019-02-24T20:10:59.396Z,16.15
2019-02-24T20:13:30.678Z,13.93
2019-02-24T20:16:00.843Z,14.87
2019-02-24T20:18:30.964Z,15.13
2019-02-24T20:21:01.130Z,12.88
2019-02-24T20:23:31.176Z,14.60
2019-02-24T20:26:01.422Z,12.80
2019-02-24T20:28:31.646Z,14.73
2019-02-24T20:31:01.782Z,17.02
2019-02-24T20:33:31.882Z,19.98
2019-02-24T20:36:03.573Z,17.65
2019-02-24T20:38:34.428Z,15.20
2019-02-24T20:41:04.488Z,16.57
2019-02-24T20:43:35.828Z,16.37
2019-02-24T20:46:05.981Z,16.35
2019-02-24T20:48:36.064Z,15.53
2019-02-24T20:51:06.228Z,15.93
2019-02-24T20:53:36.380Z,18.27
2019-02-24T20:56:06.460Z,20.27
2019-02-24T20:58:36.480Z,18.75
2019-02-24T21:01:08.072Z,20.15
2019-02-24T21:03:38.428Z,19.40
2019-02-24T21:06:08.352Z,19.42
2019-02-24T21:08:38.562Z,18.12
2019-02-24T21:11:14.523Z,18.27
2019-02-24T21:13:44.721Z,17.32
2019-02-24T21:16:14.837Z,17.10
2019-02-24T21:18:47.298Z,16.57
2019-02-24T21:21:18.475Z,15.98
2019-02-24T21:23:49.497Z,15.75
2019-02-24T21:26:19.910Z,16.45
2019-02-24T21:28:50.041Z,15.53
2019-02-24T21:31:20.085Z,16.32
2019-02-24T21:33:50.492Z,16.05
2019-02-24T21:36:20.595Z,15.78
2019-02-24T21:38:50.694Z,16.40
2019-02-24T21:41:20.676Z,16.37
2019-02-24T21:43:50.855Z,16.05
2019-02-24T21:46:20.836Z,16.02
2019-02-24T21:48:50.991Z,17.02
2019-02-24T21:51:21.172Z,16.67
2019-02-24T21:53:51.348Z,19.05
2019-02-24T21:56:23.140Z,16.90
2019-02-24T21:58:53.319Z,17.40
2019-02-24T22:01:23.429Z,16.73
2019-02-24T22:03:53.700Z,17.42
2019-02-24T22:06:23.994Z,17.23
2019-02-24T22:08:54.217Z,19.80
2019-02-24T22:11:24.354Z,19.98
2019-02-24T22:13:54.562Z,19.95
2019-02-24T22:16:25.595Z,18.73
2019-02-24T22:18:55.806Z,19.00
2019-02-24T22:21:25.861Z,17.77
2019-02-24T22:23:55.939Z,18.45
2019-02-24T22:26:26.002Z,23.98
2019-02-24T22:28:56.116Z,25.92
2019-02-24T22:31:26.178Z,24.05
2019-02-24T22:33:56.258Z,21.55
2019-02-24T22:36:26.304Z,19.82
2019-02-24T22:38:56.403Z,19.20
2019-02-24T22:41:26.515Z,17.37
2019-02-24T22:43:56.554Z,17.02
2019-02-24T22:46:26.592Z,18.17
2019-02-24T22:48:56.746Z,17.90
2019-02-24T22:51:26.878Z,17.48
2019-02-24T22:53:56.884Z,17.30
2019-02-24T22:56:26.987Z,18.40
2019-02-24T22:58:57.190Z,18.45
2019-02-24T23:01:28.507Z,18.00
2019-02-24T23:04:05.148Z,17.73
2019-02-24T23:06:36.305Z,19.23
2019-02-24T23:09:07.691Z,18.65
2019-02-24T23:11:39.199Z,19.82
2019-02-24T23:14:11.137Z,20.12
2019-02-24T23:16:41.042Z,19.62
2019-02-24T23:19:11.200Z,18.70
2019-02-24T23:21:41.194Z,19.85
2019-02-24T23:24:11.202Z,19.40
2019-02-24T23:26:41.332Z,18.60
2019-02-24T23:29:11.620Z,19.45
2019-02-24T23:31:41.661Z,21.57
2019-02-24T23:34:11.791Z,20.15
2019-02-24T23:36:41.775Z,21.40
2019-02-24T23:39:14.096Z,19.73
2019-02-24T23:41:44.601Z,20.70
2019-02-24T23:44:14.695Z,20.40
2019-02-24T23:46:44.676Z,20.65
2019-02-24T23:49:14.778Z,20.30
2019-02-24T23:51:45.916Z,20.17
2019-02-24T23:54:16.003Z,22.40
2019-02-24T23:56:46.080Z,21.85
2019-02-24T23:59:16.168Z,20.15
